createdAt,value
2018-01-26T00:02:33.421Z,51.95
2018-01-26T00:05:08.678Z,39.83
2018-01-26T00:07:43.208Z,39.30
2018-01-26T00:10:17.942Z,42.55
2018-01-26T00:12:54.313Z,49.80
2018-01-26T00:15:28.879Z,40.35
2018-01-26T00:18:03.340Z,37.03
2018-01-26T00:20:37.926Z,40.72
2018-01-26T00:23:12.306Z,42.08
2018-01-26T00:25:46.773Z,40.12
2018-01-26T00:28:21.876Z,47.60
2018-01-26T00:30:57.075Z,46.33
2018-01-26T00:33:31.447Z,39.75
2018-01-26T00:36:06.699Z,43.10
2018-01-26T00:38:41.977Z,51.03
2018-01-26T00:41:16.453Z,50.67
2018-01-26T00:43:51.621Z,41.42
2018-01-26T00:46:25.986Z,37.30
2018-01-26T00:49:00.509Z,39.90
2018-01-26T00:51:34.857Z,42.67
2018-01-26T00:54:10.084Z,40.83
2018-01-26T00:56:44.445Z,41.72
2018-01-26T00:59:18.908Z,40.65
2018-01-26T01:01:53.447Z,43.40
2018-01-26T01:04:28.024Z,46.15
2018-01-26T01:07:02.389Z,46.40
2018-01-26T01:09:36.915Z,45.45
2018-01-26T01:12:11.363Z,42.72
2018-01-26T01:14:45.838Z,44.42
2018-01-26T01:17:20.392Z,43.80
2018-01-26T01:19:54.820Z,54.78
2018-01-26T01:22:29.287Z,48.42
2018-01-26T01:25:03.761Z,48.33
2018-01-26T01:27:38.255Z,44.72
2018-01-26T01:30:12.697Z,39.72
2018-01-26T01:32:47.080Z,44.45
2018-01-26T01:35:21.590Z,42.47
2018-01-26T01:37:56.039Z,48.30
2018-01-26T01:40:30.606Z,55.47
2018-01-26T01:43:05.003Z,42.72
2018-01-26T01:45:39.521Z,53.53
2018-01-26T01:48:14.772Z,46.05
2018-01-26T01:50:49.167Z,48.17
2018-01-26T01:53:24.420Z,43.22
2018-01-26T01:55:58.800Z,44.72
2018-01-26T01:58:33.301Z,42.13
2018-01-26T02:01:08.638Z,46.83
2018-01-26T02:03:43.147Z,42.38
2018-01-26T02:06:17.895Z,50.00
2018-01-26T02:08:52.280Z,46.63
2018-01-26T02:11:26.836Z,43.55
2018-01-26T02:14:01.387Z,47.13
2018-01-26T02:16:35.925Z,48.13
2018-01-26T02:19:10.517Z,46.67
2018-01-26T02:21:45.044Z,40.50
2018-01-26T02:24:19.505Z,52.42
2018-01-26T02:26:54.721Z,50.05
2018-01-26T02:29:29.143Z,52.45
2018-01-26T02:32:03.606Z,49.47
2018-01-26T02:34:38.158Z,46.75
2018-01-26T02:37:13.424Z,44.35
2018-01-26T02:39:47.948Z,41.00
2018-01-26T02:42:22.516Z,42.25
2018-01-26T02:44:57.256Z,42.53
2018-01-26T02:47:31.642Z,48.20
2018-01-26T02:50:06.157Z,46.63
2018-01-26T02:52:40.673Z,47.92
2018-01-26T02:55:15.074Z,46.92
2018-01-26T02:57:49.559Z,42.95
2018-01-26T03:00:24.049Z,54.20
2018-01-26T03:02:58.597Z,52.22
2018-01-26T03:05:33.152Z,44.10
2018-01-26T03:08:07.736Z,41.85
2018-01-26T03:10:42.926Z,47.62
2018-01-26T03:13:17.425Z,41.75
2018-01-26T03:15:51.992Z,49.50
2018-01-26T03:18:26.503Z,46.67
2018-01-26T03:21:00.913Z,46.00
2018-01-26T03:23:36.281Z,45.22
2018-01-26T03:26:11.471Z,54.65
2018-01-26T03:28:45.888Z,48.03
2018-01-26T03:31:20.212Z,48.17
2018-01-26T03:33:54.780Z,51.55
2018-01-26T03:36:29.365Z,52.53
2018-01-26T03:39:03.926Z,56.55
2018-01-26T03:41:38.428Z,58.40
2018-01-26T03:44:12.850Z,51.88
2018-01-26T03:46:47.354Z,55.70
2018-01-26T03:49:21.918Z,52.05
2018-01-26T03:51:56.281Z,54.38
2018-01-26T03:54:30.802Z,49.80
2018-01-26T03:57:05.255Z,54.42
2018-01-26T03:59:39.742Z,51.55
2018-01-26T04:02:14.188Z,62.72
2018-01-26T04:04:48.681Z,56.88
2018-01-26T04:07:23.196Z,50.30
2018-01-26T04:09:57.706Z,49.85
2018-01-26T04:12:32.297Z,49.90
2018-01-26T04:15:07.500Z,51.17
2018-01-26T04:17:42.752Z,46.28
2018-01-26T04:20:17.225Z,51.95
2018-01-26T04:22:51.760Z,54.85
2018-01-26T04:25:26.117Z,53.42
2018-01-26T04:28:00.629Z,51.97
2018-01-26T04:30:35.145Z,50.53
2018-01-26T04:33:09.496Z,53.65
2018-01-26T04:35:44.020Z,58.63
2018-01-26T04:38:19.479Z,58.35
2018-01-26T04:40:53.852Z,49.72
2018-01-26T04:43:28.395Z,56.42
2018-01-26T04:46:02.894Z,49.05
2018-01-26T04:48:37.429Z,57.47
2018-01-26T04:51:11.802Z,58.83
2018-01-26T04:53:46.241Z,50.12
2018-01-26T04:56:20.886Z,55.35
2018-01-26T04:58:55.388Z,57.03
2018-01-26T05:01:29.904Z,54.42
2018-01-26T05:04:04.511Z,57.28
2018-01-26T05:06:39.156Z,63.65
2018-01-26T05:09:13.499Z,49.15
2018-01-26T05:11:48.032Z,64.18
2018-01-26T05:14:23.357Z,58.10
2018-01-26T05:16:57.859Z,54.08
2018-01-26T05:19:32.459Z,54.63
2018-01-26T05:22:06.926Z,55.35
2018-01-26T05:24:41.388Z,53.85
2018-01-26T05:27:15.772Z,52.22
2018-01-26T05:29:50.110Z,58.42
2018-01-26T05:32:24.500Z,60.50
2018-01-26T05:34:59.029Z,55.95
2018-01-26T05:37:33.582Z,58.05
2018-01-26T05:40:08.006Z,51.97
2018-01-26T05:42:42.508Z,59.47
2018-01-26T05:45:16.923Z,59.75
2018-01-26T05:47:52.376Z,60.85
2018-01-26T05:50:26.868Z,52.08
2018-01-26T05:53:01.402Z,58.22
2018-01-26T05:55:35.926Z,61.78
2018-01-26T05:58:10.435Z,59.17
2018-01-26T06:00:44.947Z,57.75
2018-01-26T06:03:19.318Z,56.30
2018-01-26T06:05:54.630Z,73.80
2018-01-26T06:08:29.878Z,62.55
2018-01-26T06:11:04.291Z,60.75
2018-01-26T06:13:38.768Z,55.22
2018-01-26T06:16:13.306Z,63.70
2018-01-26T06:18:47.680Z,50.17
2018-01-26T06:21:22.853Z,57.03
2018-01-26T06:23:57.267Z,48.15
2018-01-26T06:26:31.824Z,50.25
2018-01-26T06:29:06.440Z,58.58
2018-01-26T06:31:40.949Z,60.03
2018-01-26T06:34:16.077Z,65.45
2018-01-26T06:36:50.665Z,61.37
2018-01-26T06:39:25.256Z,44.40
2018-01-26T06:41:59.801Z,49.65
2018-01-26T06:44:34.203Z,59.13
2018-01-26T06:47:08.529Z,59.40
2018-01-26T06:49:43.019Z,55.40
2018-01-26T06:52:17.565Z,56.05
2018-01-26T06:54:52.870Z,56.55
2018-01-26T06:57:27.288Z,59.22
2018-01-26T07:00:03.102Z,52.72
2018-01-26T07:02:37.592Z,56.13
2018-01-26T07:05:12.865Z,64.30
2018-01-26T07:07:47.293Z,50.03
2018-01-26T07:10:21.850Z,54.15
2018-01-26T07:12:56.330Z,58.70
2018-01-26T07:15:31.007Z,68.90
2018-01-26T07:18:05.547Z,50.42
2018-01-26T07:20:39.929Z,62.72
2018-01-26T07:23:14.469Z,73.62
2018-01-26T07:25:49.019Z,68.50
2018-01-26T07:28:23.536Z,64.22
2018-01-26T07:30:57.910Z,75.47
2018-01-26T07:33:32.514Z,59.13
2018-01-26T07:36:07.069Z,117.20
2018-01-26T07:38:41.768Z,75.57
2018-01-26T07:41:16.308Z,66.32
2018-01-26T07:43:50.873Z,90.65
2018-01-26T07:46:25.452Z,65.97
2018-01-26T07:49:00.266Z,78.18
2018-01-26T07:51:34.719Z,61.60
2018-01-26T07:54:09.286Z,54.80
2018-01-26T07:56:43.778Z,78.30
2018-01-26T07:59:18.290Z,90.87
2018-01-26T08:01:52.760Z,74.03
2018-01-26T08:04:27.288Z,59.47
2018-01-26T08:07:01.678Z,59.30
2018-01-26T08:09:36.262Z,55.80
2018-01-26T08:12:10.592Z,81.53
2018-01-26T08:14:45.098Z,68.78
2018-01-26T08:17:19.643Z,98.80
2018-01-26T08:19:54.218Z,69.65
2018-01-26T08:22:28.713Z,89.95
2018-01-26T08:25:03.096Z,70.75
2018-01-26T08:27:37.461Z,89.55
2018-01-26T08:30:11.836Z,73.05
2018-01-26T08:32:46.334Z,60.72
2018-01-26T08:35:20.888Z,90.78
2018-01-26T08:37:55.564Z,75.85
2018-01-26T08:40:30.105Z,69.45
2018-01-26T08:43:04.671Z,56.40
2018-01-26T08:45:39.300Z,54.80
2018-01-26T08:48:13.687Z,72.75
2018-01-26T08:50:48.201Z,65.90
2018-01-26T08:53:22.674Z,67.12
2018-01-26T08:55:57.175Z,63.80
2018-01-26T08:58:31.700Z,57.20
2018-01-26T09:01:06.252Z,66.90
2018-01-26T09:03:40.614Z,64.60
2018-01-26T09:06:14.938Z,54.75
2018-01-26T09:08:49.465Z,54.47
2018-01-26T09:11:23.981Z,45.28
2018-01-26T09:13:58.392Z,55.00
2018-01-26T09:16:33.620Z,56.05
2018-01-26T09:19:08.169Z,52.17
2018-01-26T09:21:42.713Z,51.95
2018-01-26T09:24:17.349Z,50.20
2018-01-26T09:26:52.909Z,57.38
2018-01-26T09:29:27.481Z,62.03
2018-01-26T09:32:02.096Z,57.83
2018-01-26T09:34:36.633Z,61.97
2018-01-26T09:37:11.113Z,67.32
2018-01-26T09:39:47.777Z,66.75
2018-01-26T09:42:23.047Z,86.70
2018-01-26T09:44:57.555Z,70.00
2018-01-26T09:47:32.101Z,67.45
2018-01-26T09:50:06.629Z,82.45
2018-01-26T09:52:41.056Z,69.12
2018-01-26T09:55:15.574Z,73.40
2018-01-26T09:57:49.973Z,76.15
2018-01-26T10:00:24.371Z,68.43
2018-01-26T10:02:58.838Z,70.43
2018-01-26T10:05:33.326Z,76.55
2018-01-26T10:08:07.912Z,82.18
2018-01-26T10:10:42.473Z,70.85
2018-01-26T10:13:16.988Z,72.60
2018-01-26T10:15:51.553Z,68.12
2018-01-26T10:18:26.021Z,82.10
2018-01-26T10:21:00.430Z,89.32
2018-01-26T10:23:34.997Z,74.87
2018-01-26T10:26:10.313Z,91.63
2018-01-26T10:28:44.843Z,136.07
2018-01-26T10:31:19.368Z,80.45
2018-01-26T10:33:53.786Z,88.00
2018-01-26T10:36:28.310Z,76.07
2018-01-26T10:39:02.900Z,73.47
2018-01-26T10:41:37.447Z,68.80
2018-01-26T10:44:12.745Z,71.15
2018-01-26T10:46:47.230Z,85.78
2018-01-26T10:49:21.696Z,69.10
2018-01-26T10:51:56.855Z,56.10
2018-01-26T10:54:31.247Z,73.12
2018-01-26T10:57:05.841Z,71.95
2018-01-26T10:59:40.437Z,66.85
2018-01-26T11:02:15.001Z,83.68
2018-01-26T11:04:50.184Z,90.60
2018-01-26T11:07:24.747Z,81.30
2018-01-26T11:09:59.108Z,52.72
2018-01-26T11:12:33.607Z,81.12
2018-01-26T11:15:08.208Z,84.28
2018-01-26T11:17:42.719Z,93.85
2018-01-26T11:20:17.177Z,77.90
2018-01-26T11:22:51.707Z,92.78
2018-01-26T11:25:26.184Z,61.05
2018-01-26T11:28:00.723Z,59.20
2018-01-26T11:30:35.148Z,47.28
2018-01-26T11:33:09.744Z,62.45
2018-01-26T11:35:44.276Z,52.58
2018-01-26T11:38:19.594Z,48.42
2018-01-26T11:40:54.104Z,48.50
2018-01-26T11:43:28.688Z,49.78
2018-01-26T11:46:03.156Z,50.88
2018-01-26T11:48:37.557Z,40.35
2018-01-26T11:51:12.034Z,46.42
2018-01-26T11:53:46.609Z,43.63
2018-01-26T11:56:20.940Z,44.25
2018-01-26T11:58:55.483Z,49.63
2018-01-26T12:01:30.113Z,47.42
2018-01-26T12:04:04.805Z,41.55
2018-01-26T12:06:39.339Z,44.38
2018-01-26T12:09:13.874Z,42.30
2018-01-26T12:11:48.381Z,43.28
2018-01-26T12:14:23.005Z,44.58
2018-01-26T12:16:57.321Z,47.13
2018-01-26T12:19:32.598Z,41.05
2018-01-26T12:22:07.067Z,38.60
2018-01-26T12:24:41.544Z,38.67
2018-01-26T12:27:15.887Z,41.92
2018-01-26T12:29:51.172Z,36.75
2018-01-26T12:32:26.337Z,38.33
2018-01-26T12:35:00.813Z,35.55
2018-01-26T12:37:35.328Z,34.05
2018-01-26T12:40:10.577Z,30.00
2018-01-26T12:42:45.104Z,38.90
2018-01-26T12:45:19.608Z,33.00
2018-01-26T12:47:54.149Z,37.28
2018-01-26T12:50:28.547Z,34.22
2018-01-26T12:53:03.009Z,47.65
2018-01-26T12:55:38.199Z,35.85
2018-01-26T12:58:12.722Z,34.08
2018-01-26T13:00:47.226Z,40.65
2018-01-26T13:03:21.773Z,47.70
2018-01-26T13:05:56.300Z,38.95
2018-01-26T13:08:30.803Z,36.72
2018-01-26T13:11:05.987Z,38.42
2018-01-26T13:13:40.478Z,42.50
2018-01-26T13:16:14.978Z,40.28
2018-01-26T13:18:49.491Z,31.05
2018-01-26T13:21:23.818Z,47.22
2018-01-26T13:23:58.276Z,50.80
2018-01-26T13:26:32.811Z,37.45
2018-01-26T13:29:07.368Z,37.92
2018-01-26T13:31:41.873Z,34.63
2018-01-26T13:34:16.240Z,40.03
2018-01-26T13:36:50.561Z,36.22
2018-01-26T13:39:25.092Z,54.10
2018-01-26T13:41:59.741Z,33.15
2018-01-26T13:44:34.297Z,32.20
2018-01-26T13:47:08.796Z,37.53
2018-01-26T13:49:43.135Z,39.72
2018-01-26T13:52:17.644Z,37.53
2018-01-26T13:54:52.181Z,34.17
2018-01-26T13:57:26.769Z,39.85
2018-01-26T14:00:01.163Z,37.92
2018-01-26T14:02:35.808Z,33.65
2018-01-26T14:05:11.117Z,38.40
2018-01-26T14:07:46.350Z,44.00
2018-01-26T14:10:21.608Z,34.35
2018-01-26T14:12:55.993Z,39.97
2018-01-26T14:15:30.557Z,32.92
2018-01-26T14:18:05.061Z,37.90
2018-01-26T14:20:39.689Z,38.25
2018-01-26T14:23:14.228Z,33.05
2018-01-26T14:25:48.606Z,34.53
2018-01-26T14:28:23.060Z,39.70
2018-01-26T14:30:57.594Z,43.20
2018-01-26T14:33:32.089Z,36.80
2018-01-26T14:36:06.497Z,45.10
2018-01-26T14:38:40.838Z,41.72
2018-01-26T14:41:15.308Z,36.83
2018-01-26T14:43:49.784Z,42.25
2018-01-26T14:46:25.004Z,35.35
2018-01-26T14:48:59.528Z,40.65
2018-01-26T14:51:34.707Z,34.85
2018-01-26T14:54:09.166Z,41.37
2018-01-26T14:56:44.449Z,45.63
2018-01-26T14:59:18.954Z,42.08
2018-01-26T15:01:54.268Z,47.28
2018-01-26T15:04:28.744Z,37.13
2018-01-26T15:07:03.232Z,46.83
2018-01-26T15:09:37.802Z,42.80
2018-01-26T15:12:12.313Z,44.50
2018-01-26T15:14:46.700Z,45.60
2018-01-26T15:17:21.372Z,44.70
2018-01-26T15:19:55.932Z,38.05
2018-01-26T15:22:30.448Z,50.88
2018-01-26T15:25:04.955Z,41.28
2018-01-26T15:27:39.393Z,44.90
2018-01-26T15:30:14.010Z,37.90
2018-01-26T15:32:48.507Z,51.03
2018-01-26T15:35:23.100Z,44.75
2018-01-26T15:37:57.665Z,28.00
2018-01-26T15:40:32.266Z,50.22
2018-01-26T15:43:06.682Z,45.70
2018-01-26T15:45:41.188Z,58.87
2018-01-26T15:48:16.390Z,55.88
2018-01-26T15:50:50.961Z,52.90
2018-01-26T15:53:25.365Z,52.53
2018-01-26T15:55:59.988Z,58.78
2018-01-26T15:58:34.526Z,51.17
2018-01-26T16:01:09.065Z,48.90
2018-01-26T16:03:43.667Z,50.70
2018-01-26T16:06:18.051Z,53.42
2018-01-26T16:08:52.537Z,59.95
2018-01-26T16:11:27.696Z,63.00
2018-01-26T16:14:02.273Z,50.42
2018-01-26T16:16:36.809Z,53.38
2018-01-26T16:19:12.255Z,47.95
2018-01-26T16:21:46.737Z,48.67
2018-01-26T16:24:21.153Z,43.50
2018-01-26T16:26:55.569Z,46.70
2018-01-26T16:29:30.112Z,51.05
2018-01-26T16:32:05.463Z,42.92
2018-01-26T16:34:39.848Z,44.40
2018-01-26T16:37:14.422Z,44.95
2018-01-26T16:39:49.574Z,44.70
2018-01-26T16:42:24.033Z,40.80
2018-01-26T16:44:58.567Z,39.13
2018-01-26T16:47:33.064Z,43.72
2018-01-26T16:50:07.718Z,48.97
2018-01-26T16:52:42.077Z,47.72
2018-01-26T16:55:16.736Z,52.83
2018-01-26T16:57:51.100Z,50.47
2018-01-26T17:00:25.656Z,38.30
2018-01-26T17:03:00.092Z,47.10
2018-01-26T17:05:34.549Z,42.25
2018-01-26T17:08:09.991Z,56.47
2018-01-26T17:10:44.380Z,47.70
2018-01-26T17:13:18.861Z,46.63
2018-01-26T17:15:53.405Z,51.47
2018-01-26T17:18:28.633Z,45.45
2018-01-26T17:21:03.134Z,50.22
2018-01-26T17:23:37.733Z,46.92
2018-01-26T17:26:12.369Z,47.83
2018-01-26T17:28:46.967Z,58.87
2018-01-26T17:31:21.350Z,53.95
2018-01-26T17:33:55.929Z,63.13
2018-01-26T17:36:30.438Z,56.53
2018-01-26T17:39:04.920Z,49.63
2018-01-26T17:41:39.442Z,59.85
2018-01-26T17:44:14.043Z,67.05
2018-01-26T17:46:48.624Z,51.97
2018-01-26T17:49:23.283Z,51.08
2018-01-26T17:51:57.782Z,52.97
2018-01-26T17:54:32.377Z,38.55
2018-01-26T17:57:06.826Z,64.85
2018-01-26T17:59:41.341Z,47.53
2018-01-26T18:02:15.816Z,51.55
2018-01-26T18:04:50.246Z,56.90
2018-01-26T18:07:25.494Z,61.58
2018-01-26T18:09:59.925Z,32.65
2018-01-26T18:12:34.359Z,34.00
2018-01-26T18:15:09.669Z,53.38
2018-01-26T18:17:45.032Z,38.80
2018-01-26T18:20:20.451Z,33.50
2018-01-26T18:22:55.199Z,27.30
2018-01-26T18:25:30.261Z,40.40
2018-01-26T18:28:04.860Z,30.00
2018-01-26T18:30:39.635Z,35.60
2018-01-26T18:33:13.968Z,26.50
2018-01-26T18:35:48.456Z,39.97
2018-01-26T18:38:23.745Z,39.78
2018-01-26T18:40:59.026Z,34.97
2018-01-26T18:43:34.659Z,35.78
2018-01-26T18:46:09.135Z,36.75
2018-01-26T18:48:43.684Z,40.67
2018-01-26T18:51:18.165Z,36.00
2018-01-26T18:53:53.364Z,38.80
2018-01-26T18:56:27.986Z,48.30
2018-01-26T18:59:02.481Z,35.10
2018-01-26T19:01:37.647Z,53.95
2018-01-26T19:04:12.098Z,49.65
2018-01-26T19:06:46.648Z,49.17
2018-01-26T19:09:21.113Z,39.08
2018-01-26T19:11:55.561Z,49.40
2018-01-26T19:14:30.046Z,25.75
2018-01-26T19:17:05.353Z,39.80
2018-01-26T19:19:39.739Z,53.20
2018-01-26T19:22:14.118Z,48.80
2018-01-26T19:24:48.494Z,59.80
2018-01-26T19:27:23.790Z,52.33
2018-01-26T19:29:58.255Z,51.55
2018-01-26T19:32:33.658Z,52.15
2018-01-26T19:35:08.170Z,48.58
2018-01-26T19:37:42.682Z,48.80
2018-01-26T19:40:17.168Z,38.72
2018-01-26T19:42:51.701Z,40.78
2018-01-26T19:45:26.216Z,43.58
2018-01-26T19:48:01.450Z,37.47
2018-01-26T19:50:35.912Z,34.40
2018-01-26T19:53:10.434Z,43.25
2018-01-26T19:55:44.925Z,38.08
2018-01-26T19:58:19.556Z,37.00
2018-01-26T20:00:54.785Z,39.20
2018-01-26T20:03:32.102Z,35.15
2018-01-26T20:06:23.998Z,39.47
2018-01-26T20:09:06.137Z,36.15
2018-01-26T20:11:40.814Z,36.67
2018-01-26T20:14:20.922Z,29.50
2018-01-26T20:16:55.482Z,31.75
2018-01-26T20:19:30.106Z,23.67
2018-01-26T20:22:04.687Z,29.80
2018-01-26T20:24:39.065Z,27.20
2018-01-26T20:27:13.563Z,27.77
2018-01-26T20:29:48.036Z,30.20
2018-01-26T20:32:22.451Z,25.37
2018-01-26T20:34:56.994Z,26.98
2018-01-26T20:37:31.437Z,22.60
2018-01-26T20:40:05.824Z,28.80
2018-01-26T20:42:40.332Z,32.15
2018-01-26T20:45:14.685Z,25.83
2018-01-26T20:47:49.012Z,28.73
2018-01-26T20:50:23.553Z,34.13
2018-01-26T20:52:58.013Z,25.65
2018-01-26T20:55:32.640Z,29.48
2018-01-26T20:58:07.130Z,34.00
2018-01-26T21:00:41.682Z,30.65
2018-01-26T21:03:16.153Z,23.35
2018-01-26T21:05:50.669Z,26.80
2018-01-26T21:08:25.244Z,34.78
2018-01-26T21:10:59.711Z,32.00
2018-01-26T21:13:34.309Z,43.92
2018-01-26T21:16:08.808Z,32.13
2018-01-26T21:18:43.209Z,39.03
2018-01-26T21:21:17.700Z,32.58
2018-01-26T21:23:52.983Z,23.48
2018-01-26T21:26:27.391Z,44.35
2018-01-26T21:29:02.044Z,48.50
2018-01-26T21:31:36.396Z,36.95
2018-01-26T21:34:10.909Z,39.03
2018-01-26T21:36:45.349Z,32.05
2018-01-26T21:39:19.889Z,37.33
2018-01-26T21:41:54.401Z,32.20
2018-01-26T21:44:28.719Z,32.95
2018-01-26T21:47:04.016Z,33.42
2018-01-26T21:49:38.504Z,20.37
2018-01-26T21:52:13.015Z,32.97
2018-01-26T21:54:47.432Z,32.70
2018-01-26T21:57:21.897Z,39.88
2018-01-26T21:59:56.346Z,39.22
2018-01-26T22:02:30.737Z,30.75
2018-01-26T22:05:10.941Z,33.22
2018-01-26T22:07:45.499Z,29.80
2018-01-26T22:10:20.032Z,33.55
2018-01-26T22:12:54.591Z,29.40
2018-01-26T22:15:29.375Z,29.95
2018-01-26T22:18:03.964Z,31.83
2018-01-26T22:20:38.476Z,39.78
2018-01-26T22:23:12.935Z,29.58
2018-01-26T22:25:47.425Z,27.30
2018-01-26T22:28:22.664Z,30.62
2018-01-26T22:30:57.318Z,19.58
2018-01-26T22:33:32.633Z,33.35
2018-01-26T22:36:07.803Z,26.33
2018-01-26T22:38:43.094Z,29.70
2018-01-26T22:41:17.588Z,17.02
2018-01-26T22:43:52.137Z,21.73
2018-01-26T22:46:26.712Z,30.75
2018-01-26T22:49:01.075Z,15.50
2018-01-26T22:51:35.625Z,22.20
2018-01-26T22:54:10.081Z,25.42
2018-01-26T22:56:44.477Z,30.88
2018-01-26T22:59:19.153Z,29.42
2018-01-26T23:01:53.524Z,22.65
2018-01-26T23:04:28.061Z,19.90
2018-01-26T23:07:02.567Z,36.67
2018-01-26T23:09:37.030Z,36.75
2018-01-26T23:12:11.425Z,31.27
2018-01-26T23:14:45.776Z,33.33
2018-01-26T23:17:20.311Z,32.10
2018-01-26T23:19:54.895Z,26.90
2018-01-26T23:22:30.080Z,29.00
2018-01-26T23:25:04.494Z,35.72
2018-01-26T23:27:39.026Z,34.00
2018-01-26T23:30:13.560Z,24.27
2018-01-26T23:32:48.044Z,43.00
2018-01-26T23:35:22.556Z,40.60
2018-01-26T23:37:57.110Z,47.22
2018-01-26T23:40:31.620Z,30.35
2018-01-26T23:43:06.133Z,31.55
2018-01-26T23:45:40.800Z,30.27
2018-01-26T23:48:15.328Z,22.83
2018-01-26T23:50:49.825Z,31.58
2018-01-26T23:53:24.317Z,23.25
2018-01-26T23:55:58.694Z,33.65
2018-01-26T23:58:33.260Z,26.15
